Terminal Aerodrome Forecast
Issued by NWS

Home | Current Version | Previous Version | Text Only | Print | Product List | Glossary On
Versions: 1 2 3 4 5 6 7 8 9 10 11 12 13 14 15 16
000
FTUS43 KDLH 221720
TAFHYR
TAF
KHYR 221720Z 2218/2318 00000KT P6SM SKC
      TEMPO 2218/2221 24009G15KT
     FM230400 00000KT P6SM SCT250
     FM230900 04003KT P6SM OVC100
     FM231500 06005KT P6SM OVC015=

USA.gov is the U.S. government's official web portal to all federal, state and local government web resources and services.